createdAt,value
2022-12-15T00:00:04.939Z,72.30
2022-12-15T00:02:50.542Z,84.40
2022-12-15T00:05:36.770Z,62.87
2022-12-15T00:08:26.544Z,67.90
2022-12-15T00:11:13.402Z,70.77
2022-12-15T00:13:59.639Z,64.20
2022-12-15T00:16:46.433Z,64.20
2022-12-15T00:19:31.960Z,68.17
2022-12-15T00:22:17.293Z,68.20
2022-12-15T00:25:03.066Z,62.73
2022-12-15T00:27:48.487Z,71.20
2022-12-15T00:30:34.311Z,75.63
2022-12-15T00:33:26.403Z,79.07
2022-12-15T00:36:12.312Z,71.70
2022-12-15T00:38:46.160Z,72.23
2022-12-15T00:41:16.254Z,73.30
2022-12-15T00:43:44.767Z,69.13
2022-12-15T00:46:30.440Z,78.33
2022-12-15T00:49:00.093Z,68.40
2022-12-15T00:51:46.017Z,68.43
2022-12-15T00:54:31.967Z,67.10
2022-12-15T00:57:17.391Z,63.53
2022-12-15T01:00:03.004Z,67.13
2022-12-15T01:02:48.912Z,68.17
2022-12-15T01:05:36.362Z,72.73
2022-12-15T01:08:21.662Z,61.77
2022-12-15T01:11:07.304Z,61.40
2022-12-15T01:13:53.285Z,57.87
2022-12-15T01:16:38.771Z,56.07
2022-12-15T01:19:26.795Z,65.50
2022-12-15T01:21:56.324Z,68.13
2022-12-15T01:24:24.523Z,67.67
2022-12-15T01:26:52.645Z,62.63
2022-12-15T01:29:20.847Z,60.03
2022-12-15T01:31:50.027Z,64.30
2022-12-15T01:34:20.090Z,61.90
2022-12-15T01:36:48.313Z,62.88
2022-12-15T01:39:17.863Z,68.68
2022-12-15T01:41:44.971Z,71.07
2022-12-15T01:44:21.520Z,65.35
2022-12-15T01:46:52.392Z,64.43
2022-12-15T01:49:26.728Z,61.07
2022-12-15T01:51:59.480Z,74.60
2022-12-15T01:54:32.172Z,69.13
2022-12-15T01:57:06.070Z,71.97
2022-12-15T01:59:37.198Z,64.43
2022-12-15T02:02:05.991Z,70.25
2022-12-15T02:04:35.336Z,61.27
2022-12-15T02:07:04.589Z,61.97
2022-12-15T02:09:34.283Z,62.70
2022-12-15T02:12:09.607Z,59.23
2022-12-15T02:14:54.571Z,60.53
2022-12-15T02:17:30.943Z,51.73
2022-12-15T02:20:33.752Z,51.70
2022-12-15T02:23:49.524Z,58.80
2022-12-15T02:27:05.632Z,56.23
2022-12-15T02:30:09.662Z,61.50
2022-12-15T02:32:49.350Z,60.30
2022-12-15T02:35:26.215Z,56.93
2022-12-15T02:37:54.738Z,66.33
2022-12-15T02:40:22.919Z,63.20
2022-12-15T02:42:55.047Z,66.07
2022-12-15T02:45:29.546Z,57.03
2022-12-15T02:48:12.019Z,55.60
2022-12-15T02:51:00.717Z,55.27
2022-12-15T02:53:42.488Z,60.43
2022-12-15T02:56:19.558Z,57.00
2022-12-15T02:58:58.053Z,58.50
2022-12-15T03:01:31.884Z,63.77
2022-12-15T03:04:04.941Z,55.80
2022-12-15T03:06:33.126Z,54.07
2022-12-15T03:09:01.274Z,64.63
2022-12-15T03:11:29.938Z,54.07
2022-12-15T03:13:58.991Z,50.50
2022-12-15T03:16:27.178Z,52.57
2022-12-15T03:18:55.410Z,53.60
2022-12-15T03:21:24.919Z,51.03
2022-12-15T03:23:53.058Z,52.50
2022-12-15T03:26:21.686Z,54.47
2022-12-15T03:28:49.947Z,60.00
2022-12-15T03:31:18.306Z,62.77
2022-12-15T03:33:46.834Z,63.67
2022-12-15T03:36:14.987Z,61.80
2022-12-15T03:38:44.621Z,60.93
2022-12-15T03:41:12.750Z,60.57
2022-12-15T03:43:40.939Z,59.53
2022-12-15T03:46:09.151Z,60.00
2022-12-15T03:48:37.584Z,65.00
2022-12-15T03:51:06.166Z,64.43
2022-12-15T03:53:34.522Z,58.72
2022-12-15T03:56:04.306Z,67.53
2022-12-15T03:58:32.426Z,70.93
2022-12-15T04:01:00.598Z,64.40
2022-12-15T04:03:29.255Z,73.50
2022-12-15T04:05:57.642Z,69.13
2022-12-15T04:08:26.819Z,59.97
2022-12-15T04:10:55.075Z,65.03
2022-12-15T04:13:24.620Z,67.83
2022-12-15T04:15:52.678Z,65.03
2022-12-15T04:18:21.196Z,67.15
2022-12-15T04:20:50.170Z,71.10
2022-12-15T04:23:18.647Z,68.40
2022-12-15T04:26:04.425Z,67.73
2022-12-15T04:28:51.896Z,74.80
2022-12-15T04:31:40.910Z,62.90
2022-12-15T04:34:30.332Z,65.97
2022-12-15T04:37:16.809Z,64.53
2022-12-15T04:40:05.333Z,58.45
2022-12-15T04:42:52.387Z,62.70
2022-12-15T04:45:41.744Z,69.73
2022-12-15T04:48:27.776Z,63.00
2022-12-15T04:51:13.689Z,61.40
2022-12-15T04:54:00.962Z,64.57
2022-12-15T04:56:47.017Z,61.00
2022-12-15T04:59:35.750Z,55.13
2022-12-15T05:02:23.039Z,62.50
2022-12-15T05:05:08.544Z,56.33
2022-12-15T05:07:53.871Z,57.07
2022-12-15T05:10:39.468Z,58.20
2022-12-15T05:13:25.757Z,56.20
2022-12-15T05:16:11.598Z,52.60
2022-12-15T05:18:59.714Z,58.50
2022-12-15T05:21:45.270Z,57.10
2022-12-15T05:24:30.943Z,71.53
2022-12-15T05:27:16.376Z,62.97
2022-12-15T05:30:01.825Z,56.17
2022-12-15T05:32:32.361Z,53.43
2022-12-15T05:35:02.391Z,57.30
2022-12-15T05:37:30.878Z,52.63
2022-12-15T05:39:59.131Z,51.20
2022-12-15T05:42:28.328Z,62.53
2022-12-15T05:44:56.793Z,48.50
2022-12-15T05:47:24.935Z,52.97
2022-12-15T05:49:53.057Z,56.43
2022-12-15T05:52:22.610Z,56.03
2022-12-15T05:54:50.753Z,49.10
2022-12-15T05:57:18.958Z,57.73
2022-12-15T05:59:47.074Z,53.93
2022-12-15T06:02:15.452Z,56.00
2022-12-15T06:04:43.770Z,59.60
2022-12-15T06:07:11.980Z,60.43
2022-12-15T06:09:41.400Z,58.90
2022-12-15T06:12:09.599Z,62.47
2022-12-15T06:14:37.829Z,60.53
2022-12-15T06:17:06.134Z,55.97
2022-12-15T06:19:34.400Z,57.83
2022-12-15T06:22:02.546Z,55.43
2022-12-15T06:24:30.603Z,53.70
2022-12-15T06:27:00.479Z,67.67
2022-12-15T06:29:28.735Z,54.90
2022-12-15T06:31:56.874Z,60.00
2022-12-15T06:34:25.123Z,57.25
2022-12-15T06:36:53.174Z,73.22
2022-12-15T06:39:21.572Z,66.47
2022-12-15T06:41:49.983Z,63.33
2022-12-15T06:44:19.543Z,58.80
2022-12-15T06:46:47.743Z,63.07
2022-12-15T06:49:15.918Z,57.20
2022-12-15T06:51:45.070Z,58.83
2022-12-15T06:54:13.549Z,54.27
2022-12-15T06:56:42.300Z,57.67
2022-12-15T06:59:12.591Z,53.10
2022-12-15T07:01:43.145Z,47.70
2022-12-15T07:04:12.090Z,49.80
2022-12-15T07:06:42.277Z,55.77
2022-12-15T07:09:17.110Z,48.13
2022-12-15T07:11:46.362Z,52.70
2022-12-15T07:14:14.645Z,60.40
2022-12-15T07:16:45.539Z,54.47
2022-12-15T07:19:14.076Z,51.30
2022-12-15T07:21:42.596Z,52.97
2022-12-15T07:24:12.236Z,59.37
2022-12-15T07:26:40.519Z,57.40
2022-12-15T07:29:08.630Z,60.77
2022-12-15T07:31:36.794Z,53.50
2022-12-15T07:34:06.378Z,58.10
2022-12-15T07:36:34.801Z,60.87
2022-12-15T07:39:04.063Z,54.97
2022-12-15T07:41:32.535Z,57.60
2022-12-15T07:44:02.199Z,53.60
2022-12-15T07:46:30.443Z,53.60
2022-12-15T07:48:58.652Z,62.70
2022-12-15T07:51:28.282Z,58.87
2022-12-15T07:53:57.084Z,54.33
2022-12-15T07:56:25.204Z,53.57
2022-12-15T07:58:53.363Z,51.40
2022-12-15T08:01:21.658Z,55.30
2022-12-15T08:03:50.587Z,46.53
2022-12-15T08:06:18.911Z,55.37
2022-12-15T08:08:51.051Z,50.33
2022-12-15T08:11:21.662Z,50.77
2022-12-15T08:14:10.489Z,55.13
2022-12-15T08:16:38.954Z,62.73
2022-12-15T08:19:08.894Z,60.80
2022-12-15T08:21:37.094Z,64.50
2022-12-15T08:24:08.121Z,65.73
2022-12-15T08:26:37.910Z,62.00
2022-12-15T08:29:40.486Z,64.27
2022-12-15T08:31:56.259Z,63.00
2022-12-15T08:34:24.591Z,61.97
2022-12-15T08:36:52.666Z,73.43
2022-12-15T08:39:22.882Z,65.20
2022-12-15T08:41:51.888Z,63.53
2022-12-15T08:44:20.025Z,59.47
2022-12-15T08:46:48.154Z,61.47
2022-12-15T08:49:21.452Z,53.40
2022-12-15T08:51:50.606Z,68.80
2022-12-15T08:54:20.229Z,72.00
2022-12-15T08:56:50.127Z,65.03
2022-12-15T08:59:19.083Z,81.67
2022-12-15T09:01:47.515Z,69.27
2022-12-15T09:04:16.387Z,68.10
2022-12-15T09:06:48.463Z,68.63
2022-12-15T09:09:19.864Z,74.90
2022-12-15T09:11:49.579Z,67.57
2022-12-15T09:14:19.632Z,74.73
2022-12-15T09:16:50.712Z,73.80
2022-12-15T09:19:19.187Z,70.30
2022-12-15T09:21:48.226Z,69.30
2022-12-15T09:24:25.826Z,82.60
2022-12-15T09:26:56.407Z,86.63
2022-12-15T09:29:24.475Z,72.63
2022-12-15T09:31:52.611Z,76.50
2022-12-15T09:34:20.809Z,65.77
2022-12-15T09:36:49.169Z,86.27
2022-12-15T09:39:17.427Z,82.63
2022-12-15T09:41:54.523Z,83.40
2022-12-15T09:44:26.317Z,83.43
2022-12-15T09:47:05.826Z,83.70
2022-12-15T09:49:53.997Z,76.60
2022-12-15T09:52:26.074Z,90.37
2022-12-15T09:54:54.862Z,86.47
2022-12-15T09:57:32.967Z,85.13
2022-12-15T10:00:16.700Z,98.67
2022-12-15T10:03:11.389Z,88.57
2022-12-15T10:08:44.562Z,81.63
2022-12-15T10:11:22.117Z,84.80
2022-12-15T10:13:56.132Z,84.63
2022-12-15T10:16:33.590Z,77.83
2022-12-15T10:19:09.880Z,94.50
2022-12-15T10:21:38.193Z,90.07
2022-12-15T10:24:44.378Z,80.50
2022-12-15T10:30:51.152Z,78.57
2022-12-15T10:33:24.157Z,93.50
2022-12-15T10:35:54.476Z,89.80
2022-12-15T10:38:31.139Z,84.57
2022-12-15T10:41:02.175Z,84.73
2022-12-15T10:43:35.844Z,88.30
2022-12-15T10:46:14.645Z,90.20
2022-12-15T10:48:48.741Z,81.13
2022-12-15T10:51:26.001Z,91.90
2022-12-15T10:53:55.885Z,89.60
2022-12-15T10:56:32.787Z,83.63
2022-12-15T10:59:04.017Z,74.80
2022-12-15T11:01:34.225Z,70.67
2022-12-15T11:04:04.359Z,81.33
2022-12-15T11:06:36.974Z,78.50
2022-12-15T11:09:19.061Z,73.57
2022-12-15T11:12:06.291Z,88.70
2022-12-15T11:14:44.990Z,76.37
2022-12-15T11:17:18.570Z,89.97
2022-12-15T11:20:01.990Z,74.23
2022-12-15T11:22:38.477Z,93.97
2022-12-15T11:25:17.600Z,73.20
2022-12-15T11:27:46.274Z,71.20
2022-12-15T11:30:16.977Z,80.47
2022-12-15T11:32:48.927Z,88.10
2022-12-15T11:35:23.423Z,71.37
2022-12-15T11:37:57.772Z,83.50
2022-12-15T11:40:39.687Z,76.87
2022-12-15T11:43:37.575Z,75.47
2022-12-15T11:46:21.708Z,87.33
2022-12-15T11:49:07.582Z,81.47
2022-12-15T11:51:43.660Z,70.13
2022-12-15T11:54:19.421Z,75.40
2022-12-15T11:56:51.874Z,67.70
2022-12-15T11:59:43.539Z,68.13
2022-12-15T12:02:33.294Z,71.63
2022-12-15T12:05:17.116Z,66.73
2022-12-15T12:07:49.406Z,72.77
2022-12-15T12:10:32.227Z,76.57
2022-12-15T12:13:10.574Z,75.97
2022-12-15T12:15:47.863Z,69.17
2022-12-15T12:18:22.806Z,74.23
2022-12-15T12:20:54.495Z,82.73
2022-12-15T12:23:32.813Z,80.23
2022-12-15T12:26:07.067Z,76.53
2022-12-15T12:28:46.693Z,71.30
2022-12-15T12:31:27.704Z,71.50
2022-12-15T12:34:03.374Z,72.30
2022-12-15T12:36:31.916Z,77.33
2022-12-15T12:39:01.842Z,78.37
2022-12-15T12:41:41.269Z,84.87
2022-12-15T12:44:16.589Z,80.40
2022-12-15T12:46:49.017Z,73.13
2022-12-15T12:52:22.782Z,86.50
2022-12-15T12:55:26.261Z,82.33
2022-12-15T12:57:55.857Z,83.40
2022-12-15T13:00:27.205Z,81.80
2022-12-15T13:03:16.387Z,79.70
2022-12-15T13:05:48.794Z,82.07
2022-12-15T13:08:44.679Z,93.10
2022-12-15T13:11:58.320Z,91.03
2022-12-15T13:14:46.663Z,92.67
2022-12-15T13:17:28.194Z,77.57
2022-12-15T13:20:25.760Z,85.13
2022-12-15T13:22:54.751Z,83.63
2022-12-15T13:25:48.534Z,82.27
2022-12-15T13:28:50.498Z,89.03
2022-12-15T13:31:49.072Z,82.63
2022-12-15T13:34:25.468Z,77.80
2022-12-15T13:36:58.981Z,93.30
2022-12-15T13:39:55.990Z,77.80
2022-12-15T13:42:53.080Z,104.37
2022-12-15T13:45:43.093Z,84.70
2022-12-15T13:48:31.575Z,69.80
2022-12-15T13:51:06.785Z,75.53
2022-12-15T13:53:41.700Z,69.53
2022-12-15T13:56:40.057Z,80.00
2022-12-15T13:59:17.472Z,66.80
2022-12-15T14:01:51.324Z,69.30
2022-12-15T14:04:22.162Z,69.70
2022-12-15T14:06:53.605Z,70.23
2022-12-15T14:09:26.920Z,73.80
2022-12-15T14:11:55.646Z,91.10
2022-12-15T14:14:26.708Z,70.10
2022-12-15T14:16:59.717Z,79.43
2022-12-15T14:19:39.171Z,75.60
2022-12-15T14:25:20.506Z,71.50
2022-12-15T14:27:50.670Z,70.33
2022-12-15T14:30:25.563Z,75.80
2022-12-15T14:32:59.120Z,74.23
2022-12-15T14:35:32.667Z,75.03
2022-12-15T14:38:04.122Z,83.87
2022-12-15T14:40:34.755Z,76.03
2022-12-15T14:43:04.025Z,77.37
2022-12-15T14:45:33.792Z,76.03
2022-12-15T14:48:40.004Z,74.17
2022-12-15T14:51:01.340Z,70.93
2022-12-15T14:53:34.774Z,87.13
2022-12-15T14:56:15.732Z,81.50
2022-12-15T14:58:48.079Z,81.37
2022-12-15T15:01:24.967Z,79.70
2022-12-15T15:03:07.286Z,78.90
2022-12-15T15:04:01.817Z,83.73
2022-12-15T15:06:37.568Z,81.50
2022-12-15T15:09:20.982Z,70.17
2022-12-15T15:11:51.941Z,71.70
2022-12-15T15:14:25.244Z,77.87
2022-12-15T15:17:07.394Z,76.80
2022-12-15T15:19:39.836Z,76.27
2022-12-15T15:22:28.342Z,83.57
2022-12-15T15:24:56.590Z,71.60
2022-12-15T15:27:33.834Z,68.77
2022-12-15T15:30:17.984Z,73.70
2022-12-15T15:32:57.261Z,73.53
2022-12-15T15:35:27.575Z,68.80
2022-12-15T15:38:03.760Z,72.70
2022-12-15T15:40:31.945Z,76.43
2022-12-15T15:43:01.189Z,65.67
2022-12-15T15:45:29.358Z,73.33
2022-12-15T15:47:57.457Z,71.83
2022-12-15T15:50:29.995Z,69.07
2022-12-15T15:53:00.087Z,77.90
2022-12-15T15:55:37.840Z,72.70
2022-12-15T15:58:12.281Z,72.80
2022-12-15T16:00:41.199Z,84.47
2022-12-15T16:03:09.829Z,72.77
2022-12-15T16:05:38.307Z,83.90
2022-12-15T16:08:10.372Z,79.17
2022-12-15T16:10:38.513Z,74.10
2022-12-15T16:13:06.675Z,75.60
2022-12-15T16:15:35.097Z,67.13
2022-12-15T16:18:03.294Z,68.03
2022-12-15T16:20:31.883Z,69.87
2022-12-15T16:23:02.950Z,75.67
2022-12-15T16:25:43.794Z,69.07
2022-12-15T16:28:17.477Z,59.53
2022-12-15T16:30:46.228Z,61.60
2022-12-15T16:33:14.594Z,61.13
2022-12-15T16:35:43.999Z,60.10
2022-12-15T16:38:17.920Z,68.20
2022-12-15T16:40:47.639Z,63.00
2022-12-15T16:43:18.639Z,65.33
2022-12-15T16:45:49.203Z,77.20
2022-12-15T16:48:18.053Z,70.50
2022-12-15T16:50:50.727Z,66.10
2022-12-15T16:53:23.156Z,70.23
2022-12-15T16:55:55.211Z,73.13
2022-12-15T16:58:25.118Z,69.30
2022-12-15T17:00:53.763Z,75.27
2022-12-15T17:03:25.736Z,71.77
2022-12-15T17:05:56.486Z,66.57
2022-12-15T17:08:28.913Z,88.57
2022-12-15T17:10:58.707Z,80.67
2022-12-15T17:13:37.670Z,78.67
2022-12-15T17:16:14.281Z,84.73
2022-12-15T17:18:44.664Z,73.73
2022-12-15T17:21:16.906Z,80.53
2022-12-15T17:23:46.713Z,80.40
2022-12-15T17:26:28.740Z,80.97
2022-12-15T17:29:00.004Z,75.77
2022-12-15T17:31:34.690Z,86.97
2022-12-15T17:34:09.237Z,72.87
2022-12-15T17:36:37.839Z,79.87
2022-12-15T17:39:11.438Z,90.60
2022-12-15T17:44:34.799Z,91.70
2022-12-15T17:47:03.746Z,78.57
2022-12-15T17:49:35.945Z,73.00
2022-12-15T17:52:09.138Z,77.03
2022-12-15T17:54:37.418Z,71.73
2022-12-15T17:57:07.037Z,78.13
2022-12-15T17:59:35.119Z,77.97
2022-12-15T18:02:03.548Z,97.27
2022-12-15T18:04:31.969Z,92.90
2022-12-15T18:07:02.272Z,91.50
2022-12-15T18:09:31.506Z,78.40
2022-12-15T18:11:59.638Z,77.13
2022-12-15T18:14:29.847Z,76.17
2022-12-15T18:17:08.273Z,78.70
2022-12-15T18:19:36.372Z,79.13
2022-12-15T18:22:04.577Z,75.87
2022-12-15T18:24:33.346Z,77.47
2022-12-15T18:27:01.413Z,89.63
2022-12-15T18:29:31.066Z,82.95
2022-12-15T18:31:59.388Z,86.60
2022-12-15T18:34:27.706Z,82.23
2022-12-15T18:36:56.043Z,83.75
2022-12-15T18:39:25.017Z,83.87
2022-12-15T18:41:54.894Z,93.47
2022-12-15T18:44:25.291Z,80.60
2022-12-15T18:46:55.638Z,80.78
2022-12-15T18:49:24.303Z,84.97
2022-12-15T18:51:52.806Z,75.27
2022-12-15T18:54:23.333Z,86.77
2022-12-15T18:56:52.334Z,83.33
2022-12-15T18:59:22.988Z,76.07
2022-12-15T19:01:51.234Z,82.72
2022-12-15T19:04:21.032Z,79.37
2022-12-15T19:06:49.180Z,72.40
2022-12-15T19:09:20.469Z,72.20
2022-12-15T19:12:07.205Z,68.97
2022-12-15T19:14:41.518Z,76.03
2022-12-15T19:17:29.124Z,72.53
2022-12-15T19:20:16.283Z,79.70
2022-12-15T19:22:45.013Z,74.90
2022-12-15T19:25:15.187Z,73.13
2022-12-15T19:27:43.458Z,72.47
2022-12-15T19:30:16.766Z,76.07
2022-12-15T19:32:45.101Z,72.10
2022-12-15T19:35:14.712Z,74.53
2022-12-15T19:37:46.569Z,78.43
2022-12-15T19:40:20.897Z,77.87
2022-12-15T19:42:50.088Z,74.23
2022-12-15T19:45:20.819Z,78.77
2022-12-15T19:47:49.273Z,66.32
2022-12-15T19:50:21.289Z,81.37
2022-12-15T19:52:53.092Z,79.97
2022-12-15T19:55:26.422Z,67.80
2022-12-15T19:57:54.559Z,65.37
2022-12-15T20:00:25.078Z,65.40
2022-12-15T20:02:55.932Z,62.30
2022-12-15T20:05:26.521Z,63.80
2022-12-15T20:07:55.689Z,69.80
2022-12-15T20:10:31.855Z,54.43
2022-12-15T20:13:01.454Z,54.60
2022-12-15T20:15:29.729Z,60.83
2022-12-15T20:17:58.152Z,56.23
2022-12-15T20:20:29.912Z,57.40
2022-12-15T20:23:02.571Z,58.07
2022-12-15T20:25:34.390Z,62.30
2022-12-15T20:28:04.379Z,57.80
2022-12-15T20:30:35.376Z,62.17
2022-12-15T20:33:05.150Z,55.00
2022-12-15T20:35:37.478Z,54.80
2022-12-15T20:38:28.254Z,53.77
2022-12-15T20:40:57.298Z,54.87
2022-12-15T20:43:26.864Z,58.87
2022-12-15T20:46:02.452Z,64.77
2022-12-15T20:48:31.170Z,65.63
2022-12-15T20:51:04.378Z,60.00
2022-12-15T20:53:35.963Z,58.87
2022-12-15T20:56:04.265Z,66.00
2022-12-15T20:58:33.356Z,56.93
2022-12-15T21:01:02.141Z,54.77
2022-12-15T21:03:34.698Z,52.83
2022-12-15T21:06:04.581Z,59.03
2022-12-15T21:08:33.477Z,57.90
2022-12-15T21:11:05.754Z,59.00
2022-12-15T21:13:35.842Z,59.80
2022-12-15T21:16:04.257Z,58.13
2022-12-15T21:21:26.782Z,54.50
2022-12-15T21:23:55.462Z,53.33
2022-12-15T21:26:25.360Z,55.00
2022-12-15T21:28:57.283Z,51.17
2022-12-15T21:31:25.612Z,46.63
2022-12-15T21:33:54.956Z,62.90
2022-12-15T21:36:24.423Z,65.43
2022-12-15T21:38:53.640Z,77.87
2022-12-15T21:41:24.677Z,58.17
2022-12-15T21:43:53.210Z,58.13
2022-12-15T21:46:28.523Z,57.57
2022-12-15T21:49:14.713Z,57.37
2022-12-15T21:51:46.987Z,56.23
2022-12-15T21:54:19.230Z,52.63
2022-12-15T21:56:48.492Z,53.60
2022-12-15T21:59:18.869Z,58.83
2022-12-15T22:01:47.642Z,53.40
2022-12-15T22:04:19.473Z,49.83
2022-12-15T22:06:50.485Z,54.23
2022-12-15T22:09:21.781Z,52.53
2022-12-15T22:11:52.862Z,56.03
2022-12-15T22:14:26.391Z,50.23
2022-12-15T22:16:55.267Z,56.53
2022-12-15T22:19:24.056Z,49.47
2022-12-15T22:21:53.725Z,47.30
2022-12-15T22:24:21.792Z,53.77
2022-12-15T22:26:50.468Z,52.83
2022-12-15T22:29:20.648Z,49.97
2022-12-15T22:31:49.601Z,49.13
2022-12-15T22:34:20.492Z,53.37
2022-12-15T22:36:49.471Z,58.50
2022-12-15T22:39:20.443Z,55.40
2022-12-15T22:41:51.523Z,59.73
2022-12-15T22:44:23.105Z,54.00
2022-12-15T22:46:52.833Z,61.07
2022-12-15T22:49:24.670Z,58.83
2022-12-15T22:51:52.834Z,57.53
2022-12-15T22:54:26.293Z,62.43
2022-12-15T22:56:58.626Z,57.90
2022-12-15T22:59:30.552Z,51.13
2022-12-15T23:01:58.831Z,57.27
2022-12-15T23:04:27.330Z,63.73
2022-12-15T23:06:55.532Z,59.17
2022-12-15T23:09:25.223Z,53.60
2022-12-15T23:11:52.321Z,62.80
2022-12-15T23:14:41.371Z,60.07
2022-12-15T23:17:08.782Z,51.80
2022-12-15T23:19:37.077Z,59.10
2022-12-15T23:22:05.117Z,56.43
2022-12-15T23:24:34.960Z,50.67
2022-12-15T23:27:03.154Z,51.33
2022-12-15T23:29:31.314Z,60.65
2022-12-15T23:31:59.439Z,58.63
2022-12-15T23:34:27.513Z,59.07
2022-12-15T23:36:55.702Z,62.35
2022-12-15T23:39:23.892Z,55.97
2022-12-15T23:41:53.401Z,55.37
2022-12-15T23:44:21.802Z,55.93
2022-12-15T23:46:50.033Z,60.40
2022-12-15T23:49:18.296Z,55.87
2022-12-15T23:51:46.447Z,45.80
2022-12-15T23:54:15.078Z,54.07
2022-12-15T23:56:43.815Z,54.30
2022-12-15T23:59:14.506Z,41.90
